Startpagina
METAR-TAF:

METAR-TAF

Vliegvelden :

Northolt, Engeland

breedte: 51-33N, lengte: 000-25W, hoogte: 38 m

Actueel weer

Dit bericht is 1 uur en het 17 minuten geleden gemaakt, om 01:50 UTC
Wind 7 kt uit het oosten
Temperatuur 14°C
Vochtigheid 63%
Druk 1017 hPa
Zicht 10 km of meer

METAR: EGWU 210150Z AUTO 09007KT 9999 // NCD 14/07 Q1017

Tijdstip: 04:07 (03:07 UTC)

Verwachting

Dit bericht is 10 uur en het 34 minuten geleden gemaakt, om 16:33 UTC
Verwachting geldig van 20 om 18 UTC tot 21 om 12 UTC
Wind 14 kt uit het oostzuidoosten
Zicht 10 km of meer
geen wolken onder 1500 m en geen cumulonimbus

TAF: EGWU 201633Z 2018/2112 11014KT CAVOK

Waarnemingen en weersverwachtingen van meer dan 4000 vliegvelden (METAR en TAF).

De beschikbare stations zijn de gele en rode punten op de kaart.

Ga met uw muis naar het station om de naam te zien.

Klik dan om waarnemingen en weersverwachtingen te zien.

kaart wijzigen: klik op de groene knoppen met een zwart kruis om in te zoomen, op de groene knop met een streepje om uit te zoomen of op de groene pijlen voor aangrenzende kaarten.


METAR-TAF: